Time;durP1;ratioP1;P1;durP2;ratioP2;P2;SDS_P1;SDS_P2;PMS_P1;PMS_P2;Temp;Humidity;BMP_temperature;BMP_pressure;BME280_temperature;BME280_humidity;BME280_pressure;Samples;Min_cycle;Max_cycle;Signal;HPM_P1;HPM_P2
2019/04/22 00:00:59;;;;;;;6.75;4.55;;;;;;;7.67;54.41113;94938.12;;;;
2019/04/22 00:02:00;;;;;;;6.750001;4.3;;;;;;;7.6;54.59473;94931.51;;;;
2019/04/22 00:03:01;;;;;;;6.750001;4.3;;;;;;;7.6;54.59473;94931.51;;;;
2019/04/22 00:04:03;;;;;;;6.750001;4.3;;;;;;;7.6;54.59473;94931.51;;;;
2019/04/22 00:05:04;;;;;;;8.3;4.8;;;;;;;7.55;54.70508;94933.23;;;;
2019/04/22 00:06:05;;;;;;;8.3;4.8;;;;;;;7.55;54.70508;94933.23;;;;
2019/04/22 00:07:06;;;;;;;7.65;4.55;;;;;;;7.51;54.83984;94923.97;;;;
2019/04/22 00:08:07;;;;;;;7.65;4.55;;;;;;;7.51;54.83984;94923.97;;;;
2019/04/22 00:09:09;;;;;;;7.65;4.55;;;;;;;7.51;54.83984;94923.97;;;;
2019/04/22 00:10:10;;;;;;;6.95;4.6;;;;;;;7.46;54.95117;94924.66;;;;
2019/04/22 00:11:11;;;;;;;6.95;4.6;;;;;;;7.46;54.95117;94924.66;;;;
2019/04/22 00:12:12;;;;;;;6.95;4.6;;;;;;;7.46;54.95117;94924.66;;;;
2019/04/22 00:13:13;;;;;;;6.65;4.400001;;;;;;;7.41;55.19043;94921.3;;;;
2019/04/22 00:14:14;;;;;;;6.65;4.400001;;;;;;;7.41;55.19043;94921.3;;;;
2019/04/22 00:15:16;;;;;;;6.65;4.400001;;;;;;;7.41;55.19043;94921.3;;;;
2019/04/22 00:16:17;;;;;;;6.65;4.400001;;;;;;;7.41;55.19043;94921.3;;;;
2019/04/22 00:17:18;;;;;;;6.65;4.400001;;;;;;;7.41;55.19043;94921.3;;;;
2019/04/22 00:18:19;;;;;;;6.6;3.95;;;;;;;7.32;55.49023;94914.59;;;;
2019/04/22 00:19:20;;;;;;;6.6;3.95;;;;;;;7.32;55.49023;94914.59;;;;
2019/04/22 00:20:21;;;;;;;6.750001;4.55;;;;;;;7.28;55.55859;94912.17;;;;
2019/04/22 00:21:22;;;;;;;6.750001;4.55;;;;;;;7.28;55.55859;94912.17;;;;
2019/04/22 00:22:23;;;;;;;6.750001;4.55;;;;;;;7.28;55.55859;94912.17;;;;
2019/04/22 00:23:24;;;;;;;6.750001;4.55;;;;;;;7.28;55.55859;94912.17;;;;
2019/04/22 00:24:25;;;;;;;6.750001;4.55;;;;;;;7.28;55.55859;94912.17;;;;
2019/04/22 00:25:26;;;;;;;6.750001;4.55;;;;;;;7.28;55.55859;94912.17;;;;
2019/04/22 00:26:27;;;;;;;6.750001;4.55;;;;;;;7.28;55.55859;94912.17;;;;
2019/04/22 00:27:29;;;;;;;6.750001;4.55;;;;;;;7.28;55.55859;94912.17;;;;
2019/04/22 00:28:30;;;;;;;6.750001;4.55;;;;;;;7.28;55.55859;94912.17;;;;
2019/04/22 00:29:31;;;;;;;6.750001;4.55;;;;;;;7.28;55.55859;94912.17;;;;
2019/04/22 00:30:39;;;;;;;6.750001;4.55;;;;;;;7.28;55.55859;94912.17;;;;
2019/04/22 00:31:48;;;;;;;7.399999;5.05;;;;;;;7.1;55.78125;94899.58;;;;
2019/04/22 00:32:53;;;;;;;7.399999;5.05;;;;;;;7.1;55.78125;94899.58;;;;
2019/04/22 00:33:56;;;;;;;6.449999;4.950001;;;;;;;7.09;56.15332;94905.56;;;;
2019/04/22 00:34:57;;;;;;;6.449999;4.950001;;;;;;;7.09;56.15332;94905.56;;;;
2019/04/22 00:35:58;;;;;;;6.449999;4.950001;;;;;;;7.09;56.15332;94905.56;;;;
2019/04/22 00:36:59;;;;;;;6.449999;4.950001;;;;;;;7.09;56.15332;94905.56;;;;
2019/04/22 00:38:00;;;;;;;6.449999;4.950001;;;;;;;7.09;56.15332;94905.56;;;;
2019/04/22 00:39:01;;;;;;;8.450001;5.05;;;;;;;7.01;56.15332;94899.58;;;;
2019/04/22 00:40:04;;;;;;;8.450001;5.05;;;;;;;7.01;56.15332;94899.58;;;;
2019/04/22 00:41:05;;;;;;;8.450001;5.05;;;;;;;7.01;56.15332;94899.58;;;;
2019/04/22 00:42:06;;;;;;;7.299999;5.1;;;;;;;6.97;56.17871;94900.23;;;;
2019/04/22 00:43:07;;;;;;;7.299999;5.1;;;;;;;6.97;56.17871;94900.23;;;;
2019/04/22 00:44:08;;;;;;;7.299999;5.1;;;;;;;6.97;56.17871;94900.23;;;;
2019/04/22 00:45:10;;;;;;;7.849999;4.45;;;;;;;6.92;56.25781;94892.46;;;;
2019/04/22 00:46:11;;;;;;;7.849999;4.45;;;;;;;6.92;56.25781;94892.46;;;;
2019/04/22 00:47:12;;;;;;;7.349999;4.35;;;;;;;6.88;56.25391;94899.2;;;;
2019/04/22 00:48:13;;;;;;;7.349999;4.35;;;;;;;6.88;56.25391;94899.2;;;;
2019/04/22 00:49:14;;;;;;;7.349999;4.35;;;;;;;6.88;56.25391;94899.2;;;;
2019/04/22 00:50:15;;;;;;;5.6;4.4;;;;;;;6.84;56.32422;94897.58;;;;
2019/04/22 00:51:16;;;;;;;5.6;4.4;;;;;;;6.84;56.32422;94897.58;;;;
2019/04/22 00:52:17;;;;;;;5.849999;4.1;;;;;;;6.8;56.29688;94888.75;;;;
2019/04/22 00:53:18;;;;;;;5.849999;4.1;;;;;;;6.8;56.29688;94888.75;;;;
2019/04/22 00:54:20;;;;;;;5.849999;4.1;;;;;;;6.8;56.29688;94888.75;;;;
2019/04/22 00:55:21;;;;;;;5.849999;4.1;;;;;;;6.8;56.29688;94888.75;;;;
2019/04/22 00:56:34;;;;;;;5.849999;4.1;;;;;;;6.8;56.29688;94888.75;;;;
2019/04/22 00:57:35;;;;;;;6.2;4.75;;;;;;;6.73;56.42676;94893.36;;;;
2019/04/22 00:58:36;;;;;;;6.2;4.75;;;;;;;6.73;56.42676;94893.36;;;;
2019/04/22 00:59:38;;;;;;;6.2;4.75;;;;;;;6.73;56.42676;94893.36;;;;
2019/04/22 01:00:39;;;;;;;7.4;4.5;;;;;;;6.7;56.59277;94881.84;;;;
2019/04/22 01:01:40;;;;;;;7.4;4.5;;;;;;;6.7;56.59277;94881.84;;;;
2019/04/22 01:02:41;;;;;;;7.4;4.5;;;;;;;6.7;56.59277;94881.84;;;;
2019/04/22 01:03:42;;;;;;;7.15;4.85;;;;;;;6.66;56.68359;94887.76;;;;
2019/04/22 01:04:43;;;;;;;7.15;4.85;;;;;;;6.66;56.68359;94887.76;;;;
2019/04/22 01:05:45;;;;;;;7.4;5.400001;;;;;;;6.62;56.82715;94889.26;;;;
2019/04/22 01:06:46;;;;;;;7.4;5.400001;;;;;;;6.62;56.82715;94889.26;;;;
2019/04/22 01:07:47;;;;;;;7.4;5.400001;;;;;;;6.62;56.82715;94889.26;;;;
2019/04/22 01:08:48;;;;;;;7.249999;4.75;;;;;;;6.59;56.91992;94896.39;;;;
2019/04/22 01:09:49;;;;;;;7.249999;4.75;;;;;;;6.59;56.91992;94896.39;;;;
2019/04/22 01:10:50;;;;;;;7.249999;4.75;;;;;;;6.59;56.91992;94896.39;;;;
2019/04/22 01:11:51;;;;;;;7.249999;4.75;;;;;;;6.59;56.91992;94896.39;;;;
2019/04/22 01:12:52;;;;;;;7.249999;4.75;;;;;;;6.59;56.91992;94896.39;;;;
2019/04/22 01:13:54;;;;;;;5.8;4.699999;;;;;;;6.54;57.19043;94890.37;;;;
2019/04/22 01:14:55;;;;;;;5.8;4.699999;;;;;;;6.54;57.19043;94890.37;;;;
2019/04/22 01:15:56;;;;;;;5.8;4.699999;;;;;;;6.54;57.19043;94890.37;;;;
2019/04/22 01:16:57;;;;;;;5.599999;4.75;;;;;;;6.51;57.30273;94885.03;;;;
2019/04/22 01:17:58;;;;;;;5.599999;4.75;;;;;;;6.51;57.30273;94885.03;;;;
2019/04/22 01:18:59;;;;;;;7.2;4.400001;;;;;;;6.49;57.43848;94877.31;;;;
2019/04/22 01:20:00;;;;;;;7.2;4.400001;;;;;;;6.49;57.43848;94877.31;;;;
2019/04/22 01:21:02;;;;;;;7.2;4.400001;;;;;;;6.49;57.43848;94877.31;;;;
2019/04/22 01:22:03;;;;;;;5.05;4.5;;;;;;;6.46;57.43457;94879.08;;;;
2019/04/22 01:23:04;;;;;;;5.05;4.5;;;;;;;6.46;57.43457;94879.08;;;;
2019/04/22 01:24:06;;;;;;;5.05;4.5;;;;;;;6.46;57.43457;94879.08;;;;
2019/04/22 01:25:07;;;;;;;5.05;4.5;;;;;;;6.46;57.43457;94879.08;;;;
2019/04/22 01:26:08;;;;;;;5.05;4.5;;;;;;;6.46;57.43457;94879.08;;;;
2019/04/22 01:27:09;;;;;;;5.750001;4.099999;;;;;;;6.4;57.54297;94873.27;;;;
2019/04/22 01:28:10;;;;;;;5.750001;4.099999;;;;;;;6.4;57.54297;94873.27;;;;
2019/04/22 01:29:12;;;;;;;5.05;4.35;;;;;;;6.37;57.61426;94871.97;;;;
2019/04/22 01:30:13;;;;;;;5.05;4.35;;;;;;;6.37;57.61426;94871.97;;;;
2019/04/22 01:31:14;;;;;;;5.05;4.35;;;;;;;6.37;57.61426;94871.97;;;;
2019/04/22 01:32:15;;;;;;;5.05;4.35;;;;;;;6.37;57.61426;94871.97;;;;
2019/04/22 01:33:16;;;;;;;5.05;4.35;;;;;;;6.37;57.61426;94871.97;;;;
2019/04/22 01:34:17;;;;;;;5.05;4.35;;;;;;;6.37;57.61426;94871.97;;;;
2019/04/22 01:35:18;;;;;;;6.55;4.9;;;;;;;6.29;57.91309;94856.98;;;;
2019/04/22 01:36:20;;;;;;;6.55;4.9;;;;;;;6.29;57.91309;94856.98;;;;
2019/04/22 01:37:21;;;;;;;6.55;4.9;;;;;;;6.29;57.91309;94856.98;;;;
2019/04/22 01:38:22;;;;;;;6.55;4.9;;;;;;;6.29;57.91309;94856.98;;;;
2019/04/22 01:39:23;;;;;;;6.55;4.9;;;;;;;6.29;57.91309;94856.98;;;;
2019/04/22 01:40:24;;;;;;;6.8;4.45;;;;;;;6.22;58.16895;94846.84;;;;
2019/04/22 01:41:25;;;;;;;6.8;4.45;;;;;;;6.22;58.16895;94846.84;;;;
2019/04/22 01:42:27;;;;;;;6.7;4.95;;;;;;;6.18;58.3457;94847.38;;;;
2019/04/22 01:43:28;;;;;;;6.7;4.95;;;;;;;6.18;58.3457;94847.38;;;;
2019/04/22 01:44:29;;;;;;;6.7;4.95;;;;;;;6.18;58.3457;94847.38;;;;
2019/04/22 01:45:30;;;;;;;6.7;4.95;;;;;;;6.18;58.3457;94847.38;;;;
2019/04/22 01:46:31;;;;;;;6.7;4.95;;;;;;;6.18;58.3457;94847.38;;;;
2019/04/22 01:47:32;;;;;;;6.7;4.95;;;;;;;6.18;58.3457;94847.38;;;;
2019/04/22 01:48:33;;;;;;;6.7;4.95;;;;;;;6.18;58.3457;94847.38;;;;
2019/04/22 01:49:34;;;;;;;6.7;4.95;;;;;;;6.18;58.3457;94847.38;;;;
2019/04/22 01:50:35;;;;;;;8.099999;5;;;;;;;6.11;58.64258;94836.41;;;;
2019/04/22 01:51:37;;;;;;;8.099999;5;;;;;;;6.11;58.64258;94836.41;;;;
2019/04/22 01:52:38;;;;;;;8.099999;5;;;;;;;6.11;58.64258;94836.41;;;;
2019/04/22 01:53:39;;;;;;;6.85;4.7;;;;;;;6.08;58.75586;94834.18;;;;
2019/04/22 01:54:40;;;;;;;6.85;4.7;;;;;;;6.08;58.75586;94834.18;;;;
2019/04/22 01:55:41;;;;;;;5.6;4.75;;;;;;;6.05;58.81641;94831.92;;;;
2019/04/22 01:56:42;;;;;;;5.6;4.75;;;;;;;6.05;58.81641;94831.92;;;;
2019/04/22 01:57:43;;;;;;;5.6;4.75;;;;;;;6.05;58.81641;94831.92;;;;
2019/04/22 01:58:44;;;;;;;5.849999;4.649999;;;;;;;6.01;58.94922;94823.91;;;;
2019/04/22 01:59:46;;;;;;;5.849999;4.649999;;;;;;;6.01;58.94922;94823.91;;;;
2019/04/22 02:00:47;;;;;;;5.849999;4.649999;;;;;;;6.01;58.94922;94823.91;;;;
2019/04/22 02:01:48;;;;;;;6.6;4.900001;;;;;;;5.98;59.04102;94822.61;;;;
2019/04/22 02:02:49;;;;;;;6.6;4.900001;;;;;;;5.98;59.04102;94822.61;;;;
2019/04/22 02:03:50;;;;;;;8.350001;5.05;;;;;;;5.95;59.1543;94824.8;;;;
2019/04/22 02:04:51;;;;;;;8.350001;5.05;;;;;;;5.95;59.1543;94824.8;;;;
2019/04/22 02:05:52;;;;;;;8.350001;5.05;;;;;;;5.95;59.1543;94824.8;;;;
2019/04/22 02:06:54;;;;;;;8.350001;5.05;;;;;;;5.95;59.1543;94824.8;;;;
2019/04/22 02:07:55;;;;;;;8.350001;5.05;;;;;;;5.95;59.1543;94824.8;;;;
2019/04/22 02:08:56;;;;;;;6.5;4.95;;;;;;;5.9;59.37109;94824.2;;;;
2019/04/22 02:09:58;;;;;;;6.5;4.95;;;;;;;5.9;59.37109;94824.2;;;;
2019/04/22 02:10:59;;;;;;;6.5;4.95;;;;;;;5.9;59.37109;94824.2;;;;
2019/04/22 02:12:00;;;;;;;6.5;4.95;;;;;;;5.9;59.37109;94824.2;;;;
2019/04/22 02:13:01;;;;;;;6.5;4.95;;;;;;;5.9;59.37109;94824.2;;;;
2019/04/22 02:14:02;;;;;;;6.5;4.95;;;;;;;5.9;59.37109;94824.2;;;;
2019/04/22 02:15:03;;;;;;;6.5;4.95;;;;;;;5.9;59.37109;94824.2;;;;
2019/04/22 02:16:04;;;;;;;6.5;4.95;;;;;;;5.9;59.37109;94824.2;;;;
2019/04/22 02:17:05;;;;;;;6.5;4.95;;;;;;;5.9;59.37109;94824.2;;;;
2019/04/22 02:18:07;;;;;;;6.5;4.95;;;;;;;5.9;59.37109;94824.2;;;;
2019/04/22 02:19:08;;;;;;;6.5;4.95;;;;;;;5.9;59.37109;94824.2;;;;
2019/04/22 02:20:09;;;;;;;6.25;4.8;;;;;;;5.44;58.20313;94809.8;;;;
2019/04/22 02:21:10;;;;;;;6.25;4.8;;;;;;;5.44;58.20313;94809.8;;;;
2019/04/22 02:22:11;;;;;;;6.45;4.6;;;;;;;5.42;58.85742;94811.95;;;;
2019/04/22 02:24:16;;;;;;;6.45;4.6;;;;;;;5.42;58.85742;94811.95;;;;
2019/04/22 02:25:17;;;;;;;8.100001;4.900001;;;;;;;5.44;59.24414;94812.06;;;;
2019/04/22 02:26:18;;;;;;;8.100001;4.900001;;;;;;;5.44;59.24414;94812.06;;;;
2019/04/22 02:27:19;;;;;;;6.299999;4.95;;;;;;;5.47;59.58594;94809.48;;;;
2019/04/22 02:28:20;;;;;;;6.299999;4.95;;;;;;;5.47;59.58594;94809.48;;;;
2019/04/22 02:29:21;;;;;;;6.299999;4.95;;;;;;;5.47;59.58594;94809.48;;;;
2019/04/22 02:30:22;;;;;;;6.249999;5.05;;;;;;;5.49;59.81348;94804.61;;;;
2019/04/22 02:31:24;;;;;;;6.249999;5.05;;;;;;;5.49;59.81348;94804.61;;;;
2019/04/22 02:32:25;;;;;;;6.249999;5.05;;;;;;;5.49;59.81348;94804.61;;;;
2019/04/22 02:33:26;;;;;;;6.649999;4.75;;;;;;;5.5;60.02734;94804.52;;;;
2019/04/22 02:34:27;;;;;;;6.649999;4.75;;;;;;;5.5;60.02734;94804.52;;;;
2019/04/22 02:35:28;;;;;;;6.649999;4.75;;;;;;;5.5;60.02734;94804.52;;;;
2019/04/22 02:36:30;;;;;;;6.649999;4.75;;;;;;;5.5;60.02734;94804.52;;;;
2019/04/22 02:37:31;;;;;;;6.649999;4.75;;;;;;;5.5;60.02734;94804.52;;;;
2019/04/22 02:38:32;;;;;;;6.649999;4.75;;;;;;;5.5;60.02734;94804.52;;;;
2019/04/22 02:39:33;;;;;;;6.649999;4.75;;;;;;;5.5;60.02734;94804.52;;;;
2019/04/22 02:40:34;;;;;;;6.649999;4.75;;;;;;;5.5;60.02734;94804.52;;;;
2019/04/22 02:41:35;;;;;;;6.649999;4.75;;;;;;;5.5;60.02734;94804.52;;;;
2019/04/22 02:42:36;;;;;;;6.649999;4.75;;;;;;;5.5;60.02734;94804.52;;;;
2019/04/22 02:43:37;;;;;;;5.500001;4.400001;;;;;;;5.14;58.79883;94786.52;;;;
2019/04/22 02:44:39;;;;;;;5.500001;4.400001;;;;;;;5.14;58.79883;94786.52;;;;
2019/04/22 02:45:40;;;;;;;6.15;4.95;;;;;;;5.12;59.47461;94781.89;;;;
2019/04/22 02:46:41;;;;;;;6.15;4.95;;;;;;;5.12;59.47461;94781.89;;;;
2019/04/22 02:47:42;;;;;;;6.15;4.95;;;;;;;5.12;59.47461;94781.89;;;;
2019/04/22 02:48:43;;;;;;;6.15;4.95;;;;;;;5.12;59.47461;94781.89;;;;
2019/04/22 02:49:44;;;;;;;6.15;4.95;;;;;;;5.12;59.47461;94781.89;;;;
2019/04/22 02:50:45;;;;;;;6.15;4.95;;;;;;;5.12;59.47461;94781.89;;;;
2019/04/22 02:51:46;;;;;;;6.15;4.95;;;;;;;5.12;59.47461;94781.89;;;;
2019/04/22 02:52:47;;;;;;;6.15;4.95;;;;;;;5.12;59.47461;94781.89;;;;
2019/04/22 02:53:49;;;;;;;6.15;4.95;;;;;;;5.12;59.47461;94781.89;;;;
2019/04/22 02:54:50;;;;;;;6.15;4.95;;;;;;;5.12;59.47461;94781.89;;;;
2019/04/22 02:55:51;;;;;;;6.15;4.95;;;;;;;5.12;59.47461;94781.89;;;;
2019/04/22 02:56:52;;;;;;;5.5;4.900001;;;;;;;4.89;58.61621;94770.78;;;;
2019/04/22 02:57:53;;;;;;;5.5;4.900001;;;;;;;4.89;58.61621;94770.78;;;;
2019/04/22 02:58:54;;;;;;;7.25;5.3;;;;;;;4.9;59.40332;94763.08;;;;
2019/04/22 02:59:55;;;;;;;7.25;5.3;;;;;;;4.9;59.40332;94763.08;;;;
2019/04/22 03:00:56;;;;;;;7.25;5.3;;;;;;;4.9;59.40332;94763.08;;;;
2019/04/22 03:01:57;;;;;;;6.7;4.95;;;;;;;4.96;59.91992;94763.16;;;;
2019/04/22 03:02:58;;;;;;;6.7;4.95;;;;;;;4.96;59.91992;94763.16;;;;
2019/04/22 03:03:59;;;;;;;6.7;4.95;;;;;;;4.96;59.91992;94763.16;;;;
2019/04/22 03:05:00;;;;;;;6.7;4.95;;;;;;;4.96;59.91992;94763.16;;;;
2019/04/22 03:06:01;;;;;;;6.7;4.95;;;;;;;4.96;59.91992;94763.16;;;;
2019/04/22 03:07:03;;;;;;;6.7;4.95;;;;;;;4.96;59.91992;94763.16;;;;
2019/04/22 03:08:04;;;;;;;6.7;4.95;;;;;;;4.96;59.91992;94763.16;;;;
2019/04/22 03:09:05;;;;;;;6.7;4.95;;;;;;;4.96;59.91992;94763.16;;;;
2019/04/22 03:10:06;;;;;;;6.7;4.95;;;;;;;4.96;59.91992;94763.16;;;;
2019/04/22 03:11:07;;;;;;;6.7;4.95;;;;;;;4.96;59.91992;94763.16;;;;
2019/04/22 03:12:08;;;;;;;6.7;4.95;;;;;;;4.96;59.91992;94763.16;;;;
2019/04/22 03:13:09;;;;;;;6.7;4.95;;;;;;;4.96;59.91992;94763.16;;;;
2019/04/22 03:14:10;;;;;;;6.7;4.95;;;;;;;4.96;59.91992;94763.16;;;;
2019/04/22 03:15:11;;;;;;;6.7;4.95;;;;;;;4.96;59.91992;94763.16;;;;
2019/04/22 03:16:12;;;;;;;6.7;4.95;;;;;;;4.96;59.91992;94763.16;;;;
2019/04/22 03:17:13;;;;;;;6.7;4.95;;;;;;;4.96;59.91992;94763.16;;;;
2019/04/22 03:18:14;;;;;;;6.9;4.9;;;;;;;4.82;59.86914;94750.9;;;;
2019/04/22 03:19:15;;;;;;;6.9;4.9;;;;;;;4.82;59.86914;94750.9;;;;
2019/04/22 03:20:17;;;;;;;6.450001;4.6;;;;;;;4.88;60.34375;94745.59;;;;
2019/04/22 03:21:18;;;;;;;6.450001;4.6;;;;;;;4.88;60.34375;94745.59;;;;
2019/04/22 03:22:19;;;;;;;6.450001;4.6;;;;;;;4.88;60.34375;94745.59;;;;
2019/04/22 03:23:20;;;;;;;9;5.200001;;;;;;;4.93;60.74316;94745.26;;;;
2019/04/22 03:24:21;;;;;;;9;5.200001;;;;;;;4.93;60.74316;94745.26;;;;
2019/04/22 03:25:22;;;;;;;9;5.200001;;;;;;;4.93;60.74316;94745.26;;;;
2019/04/22 03:26:23;;;;;;;9;5.200001;;;;;;;4.93;60.74316;94745.26;;;;
2019/04/22 03:27:24;;;;;;;9;5.200001;;;;;;;4.93;60.74316;94745.26;;;;
2019/04/22 03:28:25;;;;;;;9;5.200001;;;;;;;4.93;60.74316;94745.26;;;;
2019/04/22 03:29:27;;;;;;;9;5.200001;;;;;;;4.93;60.74316;94745.26;;;;
2019/04/22 03:30:32;;;;;;;9;5.200001;;;;;;;4.93;60.74316;94745.26;;;;
2019/04/22 03:34:30;;;;;;;7.2;5.25;;;;;;;4.68;59.60645;94739.43;;;;
2019/04/22 03:35:31;;;;;;;7.2;5.25;;;;;;;4.68;59.60645;94739.43;;;;
2019/04/22 03:36:32;;;;;;;8.299999;5.65;;;;;;;4.69;60.40332;94741.05;;;;
2019/04/22 03:37:33;;;;;;;8.299999;5.65;;;;;;;4.69;60.40332;94741.05;;;;
2019/04/22 03:38:34;;;;;;;8.299999;5.65;;;;;;;4.69;60.40332;94741.05;;;;
2019/04/22 03:39:35;;;;;;;8.299999;5.65;;;;;;;4.69;60.40332;94741.05;;;;
2019/04/22 03:40:36;;;;;;;8.299999;5.65;;;;;;;4.69;60.40332;94741.05;;;;
2019/04/22 03:41:37;;;;;;;8.299999;5.65;;;;;;;4.69;60.40332;94741.05;;;;
2019/04/22 03:42:38;;;;;;;8.299999;5.65;;;;;;;4.69;60.40332;94741.05;;;;
2019/04/22 03:43:39;;;;;;;8.299999;5.65;;;;;;;4.69;60.40332;94741.05;;;;
2019/04/22 03:44:40;;;;;;;8.299999;5.65;;;;;;;4.69;60.40332;94741.05;;;;
2019/04/22 03:45:42;;;;;;;8.299999;5.65;;;;;;;4.69;60.40332;94741.05;;;;
2019/04/22 03:46:43;;;;;;;8.400001;5.7;;;;;;;4.53;59.55273;94729.64;;;;
2019/04/22 03:47:44;;;;;;;8.400001;5.7;;;;;;;4.53;59.55273;94729.64;;;;
2019/04/22 03:48:45;;;;;;;8.400001;5.7;;;;;;;4.53;59.55273;94729.64;;;;
2019/04/22 03:49:46;;;;;;;6.7;5.2;;;;;;;4.55;60.40332;94728.91;;;;
2019/04/22 03:50:47;;;;;;;6.7;5.2;;;;;;;4.55;60.40332;94728.91;;;;
2019/04/22 03:51:48;;;;;;;6.7;5.2;;;;;;;4.55;60.40332;94728.91;;;;
2019/04/22 03:52:49;;;;;;;6.7;5.2;;;;;;;4.55;60.40332;94728.91;;;;
2019/04/22 03:53:50;;;;;;;6.7;5.2;;;;;;;4.55;60.40332;94728.91;;;;
2019/04/22 03:54:51;;;;;;;6.7;5.2;;;;;;;4.55;60.40332;94728.91;;;;
2019/04/22 03:55:52;;;;;;;6.7;5.2;;;;;;;4.55;60.40332;94728.91;;;;
2019/04/22 03:56:53;;;;;;;6.7;5.2;;;;;;;4.55;60.40332;94728.91;;;;
2019/04/22 03:57:54;;;;;;;6.7;5.2;;;;;;;4.55;60.40332;94728.91;;;;
2019/04/22 03:58:56;;;;;;;6.7;5.2;;;;;;;4.55;60.40332;94728.91;;;;
2019/04/22 03:59:57;;;;;;;7.349999;5.249999;;;;;;;4.44;59.62402;94721.97;;;;
2019/04/22 04:00:58;;;;;;;7.349999;5.249999;;;;;;;4.44;59.62402;94721.97;;;;
2019/04/22 04:01:59;;;;;;;7.349999;5.249999;;;;;;;4.44;59.62402;94721.97;;;;
2019/04/22 04:03:00;;;;;;;7.549999;5.75;;;;;;;4.46;60.47559;94722.97;;;;
2019/04/22 04:04:01;;;;;;;7.549999;5.75;;;;;;;4.46;60.47559;94722.97;;;;
2019/04/22 04:05:02;;;;;;;7.549999;5.75;;;;;;;4.46;60.47559;94722.97;;;;
2019/04/22 04:06:03;;;;;;;7.549999;5.75;;;;;;;4.46;60.47559;94722.97;;;;
2019/04/22 04:07:04;;;;;;;7.549999;5.75;;;;;;;4.46;60.47559;94722.97;;;;
2019/04/22 04:08:05;;;;;;;7.549999;5.75;;;;;;;4.46;60.47559;94722.97;;;;
2019/04/22 04:09:06;;;;;;;7.549999;5.75;;;;;;;4.46;60.47559;94722.97;;;;
2019/04/22 04:10:08;;;;;;;7.549999;5.75;;;;;;;4.46;60.47559;94722.97;;;;
2019/04/22 04:11:09;;;;;;;7.549999;5.75;;;;;;;4.46;60.47559;94722.97;;;;
2019/04/22 04:12:10;;;;;;;7.549999;5.75;;;;;;;4.46;60.47559;94722.97;;;;
2019/04/22 04:13:11;;;;;;;7.05;5.5;;;;;;;4.4;59.71582;94712.22;;;;
2019/04/22 04:14:12;;;;;;;7.05;5.5;;;;;;;4.4;59.71582;94712.22;;;;
2019/04/22 04:15:13;;;;;;;7.05;5.5;;;;;;;4.4;59.71582;94712.22;;;;
2019/04/22 04:16:14;;;;;;;6.65;5.649999;;;;;;;4.45;60.54883;94716.91;;;;
2019/04/22 04:17:15;;;;;;;6.65;5.649999;;;;;;;4.45;60.54883;94716.91;;;;
2019/04/22 04:18:16;;;;;;;6.65;5.649999;;;;;;;4.45;60.54883;94716.91;;;;
2019/04/22 04:19:17;;;;;;;6.65;5.649999;;;;;;;4.45;60.54883;94716.91;;;;
2019/04/22 04:20:18;;;;;;;6.65;5.649999;;;;;;;4.45;60.54883;94716.91;;;;
2019/04/22 04:21:20;;;;;;;6.65;5.649999;;;;;;;4.45;60.54883;94716.91;;;;
2019/04/22 04:22:21;;;;;;;6.65;5.649999;;;;;;;4.45;60.54883;94716.91;;;;
2019/04/22 04:23:22;;;;;;;6.65;5.649999;;;;;;;4.45;60.54883;94716.91;;;;
2019/04/22 04:24:23;;;;;;;6.65;5.649999;;;;;;;4.45;60.54883;94716.91;;;;
2019/04/22 04:25:24;;;;;;;6.65;5.649999;;;;;;;4.45;60.54883;94716.91;;;;
2019/04/22 04:26:25;;;;;;;8.95;5.95;;;;;;;4.48;59.84277;94713.42;;;;
2019/04/22 04:27:26;;;;;;;8.95;5.95;;;;;;;4.48;59.84277;94713.42;;;;
2019/04/22 04:28:27;;;;;;;8.95;5.95;;;;;;;4.48;59.84277;94713.42;;;;
2019/04/22 04:29:28;;;;;;;9.799999;6.1;;;;;;;4.55;60.69922;94713.67;;;;
2019/04/22 04:30:29;;;;;;;9.799999;6.1;;;;;;;4.55;60.69922;94713.67;;;;
2019/04/22 04:31:30;;;;;;;9.799999;6.1;;;;;;;4.55;60.69922;94713.67;;;;
2019/04/22 04:32:31;;;;;;;9.799999;6.1;;;;;;;4.55;60.69922;94713.67;;;;
2019/04/22 04:33:32;;;;;;;9.799999;6.1;;;;;;;4.55;60.69922;94713.67;;;;
2019/04/22 04:34:34;;;;;;;9.799999;6.1;;;;;;;4.55;60.69922;94713.67;;;;
2019/04/22 04:35:35;;;;;;;9.799999;6.1;;;;;;;4.55;60.69922;94713.67;;;;
2019/04/22 04:36:36;;;;;;;9.799999;6.1;;;;;;;4.55;60.69922;94713.67;;;;
2019/04/22 04:37:37;;;;;;;9.799999;6.1;;;;;;;4.55;60.69922;94713.67;;;;
2019/04/22 04:38:38;;;;;;;9.799999;6.1;;;;;;;4.55;60.69922;94713.67;;;;
2019/04/22 04:39:39;;;;;;;7.5;6.3;;;;;;;4.75;59.83789;94718.41;;;;
2019/04/22 04:40:40;;;;;;;7.5;6.3;;;;;;;4.75;59.83789;94718.41;;;;
2019/04/22 04:41:41;;;;;;;7.5;6.3;;;;;;;4.75;59.83789;94718.41;;;;
2019/04/22 04:42:42;;;;;;;7.5;6.3;;;;;;;4.75;59.83789;94718.41;;;;
2019/04/22 04:43:43;;;;;;;7.5;6.3;;;;;;;4.75;59.83789;94718.41;;;;
2019/04/22 04:44:44;;;;;;;7.5;6.3;;;;;;;4.75;59.83789;94718.41;;;;
2019/04/22 04:45:45;;;;;;;7.5;6.3;;;;;;;4.75;59.83789;94718.41;;;;
2019/04/22 04:46:46;;;;;;;7.5;6.3;;;;;;;4.75;59.83789;94718.41;;;;
2019/04/22 04:47:47;;;;;;;7.5;6.3;;;;;;;4.75;59.83789;94718.41;;;;
2019/04/22 04:48:48;;;;;;;7.5;6.3;;;;;;;4.75;59.83789;94718.41;;;;
2019/04/22 04:49:49;;;;;;;7.5;6.3;;;;;;;4.75;59.83789;94718.41;;;;
2019/04/22 04:50:51;;;;;;;7.5;6.3;;;;;;;4.75;59.83789;94718.41;;;;
2019/04/22 04:51:52;;;;;;;7.5;6.3;;;;;;;4.75;59.83789;94718.41;;;;
2019/04/22 04:52:53;;;;;;;8.75;6.050002;;;;;;;5.11;59.63379;94712.83;;;;
2019/04/22 04:53:54;;;;;;;8.75;6.050002;;;;;;;5.11;59.63379;94712.83;;;;
2019/04/22 04:54:55;;;;;;;8.75;6.050002;;;;;;;5.11;59.63379;94712.83;;;;
2019/04/22 04:55:56;;;;;;;6.849999;6.149999;;;;;;;5.22;60.50781;94713.98;;;;
2019/04/22 04:56:57;;;;;;;6.849999;6.149999;;;;;;;5.22;60.50781;94713.98;;;;
2019/04/22 04:57:58;;;;;;;6.849999;6.149999;;;;;;;5.22;60.50781;94713.98;;;;
2019/04/22 04:58:59;;;;;;;6.849999;6.149999;;;;;;;5.22;60.50781;94713.98;;;;
2019/04/22 05:00:00;;;;;;;6.849999;6.149999;;;;;;;5.22;60.50781;94713.98;;;;
2019/04/22 05:01:01;;;;;;;6.849999;6.149999;;;;;;;5.22;60.50781;94713.98;;;;
2019/04/22 05:02:02;;;;;;;6.849999;6.149999;;;;;;;5.22;60.50781;94713.98;;;;
2019/04/22 05:03:03;;;;;;;6.849999;6.149999;;;;;;;5.22;60.50781;94713.98;;;;
2019/04/22 05:04:05;;;;;;;6.849999;6.149999;;;;;;;5.22;60.50781;94713.98;;;;
2019/04/22 05:05:06;;;;;;;6.849999;6.149999;;;;;;;5.22;60.50781;94713.98;;;;
2019/04/22 05:06:07;;;;;;;7.749999;6.2;;;;;;;5.5;59.60254;94714.4;;;;
2019/04/22 05:07:08;;;;;;;7.749999;6.2;;;;;;;5.5;59.60254;94714.4;;;;
2019/04/22 05:08:09;;;;;;;7.749999;6.2;;;;;;;5.5;59.60254;94714.4;;;;
2019/04/22 05:09:10;;;;;;;7.65;6.25;;;;;;;5.63;60.43848;94714.31;;;;
2019/04/22 05:10:12;;;;;;;7.65;6.25;;;;;;;5.63;60.43848;94714.31;;;;
2019/04/22 05:11:13;;;;;;;7.65;6.25;;;;;;;5.63;60.43848;94714.31;;;;
2019/04/22 05:12:14;;;;;;;7.65;6.25;;;;;;;5.63;60.43848;94714.31;;;;
2019/04/22 05:13:15;;;;;;;7.65;6.25;;;;;;;5.63;60.43848;94714.31;;;;
2019/04/22 05:14:16;;;;;;;7.65;6.25;;;;;;;5.63;60.43848;94714.31;;;;
2019/04/22 05:15:17;;;;;;;7.65;6.25;;;;;;;5.63;60.43848;94714.31;;;;
2019/04/22 05:16:18;;;;;;;7.65;6.25;;;;;;;5.63;60.43848;94714.31;;;;
2019/04/22 05:17:19;;;;;;;7.65;6.25;;;;;;;5.63;60.43848;94714.31;;;;
2019/04/22 05:18:20;;;;;;;7.65;6.25;;;;;;;5.63;60.43848;94714.31;;;;
2019/04/22 05:19:21;;;;;;;8.799999;6;;;;;;;6.03;59.33496;94712.48;;;;
2019/04/22 05:20:22;;;;;;;8.799999;6;;;;;;;6.03;59.33496;94712.48;;;;
2019/04/22 05:21:23;;;;;;;8.799999;6;;;;;;;6.03;59.33496;94712.48;;;;
2019/04/22 05:22:25;;;;;;;8.200001;6.199999;;;;;;;6.22;60.05371;94711.89;;;;
2019/04/22 05:23:26;;;;;;;8.200001;6.199999;;;;;;;6.22;60.05371;94711.89;;;;
2019/04/22 05:24:27;;;;;;;7.2;6.25;;;;;;;6.48;60.02539;94711.16;;;;
2019/04/22 05:25:28;;;;;;;7.2;6.25;;;;;;;6.48;60.02539;94711.16;;;;
2019/04/22 05:26:29;;;;;;;7.2;6.25;;;;;;;6.48;60.02539;94711.16;;;;
2019/04/22 05:27:30;;;;;;;7.2;6.25;;;;;;;6.48;60.02539;94711.16;;;;
2019/04/22 05:28:31;;;;;;;7.2;6.25;;;;;;;6.48;60.02539;94711.16;;;;
2019/04/22 05:29:32;;;;;;;7.2;6.25;;;;;;;6.48;60.02539;94711.16;;;;
2019/04/22 05:30:33;;;;;;;7.2;6.25;;;;;;;6.48;60.02539;94711.16;;;;
2019/04/22 05:31:34;;;;;;;7.2;6.25;;;;;;;6.48;60.02539;94711.16;;;;
2019/04/22 05:32:36;;;;;;;7.2;6.25;;;;;;;6.48;60.02539;94711.16;;;;
2019/04/22 05:33:37;;;;;;;7.2;6.25;;;;;;;6.48;60.02539;94711.16;;;;
2019/04/22 05:34:38;;;;;;;7.2;6.25;;;;;;;6.48;60.02539;94711.16;;;;
2019/04/22 05:35:39;;;;;;;7.85;5.8;;;;;;;7.1;58.51172;94694.23;;;;
2019/04/22 05:36:40;;;;;;;7.85;5.8;;;;;;;7.1;58.51172;94694.23;;;;
2019/04/22 05:37:41;;;;;;;7.85;5.8;;;;;;;7.1;58.51172;94694.23;;;;
2019/04/22 05:38:42;;;;;;;7.85;5.8;;;;;;;7.1;58.51172;94694.23;;;;
2019/04/22 05:39:43;;;;;;;7.85;5.8;;;;;;;7.1;58.51172;94694.23;;;;
2019/04/22 05:40:44;;;;;;;7.85;5.8;;;;;;;7.1;58.51172;94694.23;;;;
2019/04/22 05:41:45;;;;;;;7.85;5.8;;;;;;;7.1;58.51172;94694.23;;;;
2019/04/22 05:42:46;;;;;;;7.85;5.8;;;;;;;7.1;58.51172;94694.23;;;;
2019/04/22 05:43:47;;;;;;;7.85;5.8;;;;;;;7.1;58.51172;94694.23;;;;
2019/04/22 05:44:48;;;;;;;7.85;5.8;;;;;;;7.1;58.51172;94694.23;;;;
2019/04/22 05:45:49;;;;;;;8.15;6.199999;;;;;;;7.69;57.53418;94697.32;;;;
2019/04/22 05:46:50;;;;;;;8.15;6.199999;;;;;;;7.69;57.53418;94697.32;;;;
2019/04/22 05:47:52;;;;;;;8.15;6.199999;;;;;;;7.69;57.53418;94697.32;;;;